sensor_id;sensor_type;location;lat;lon;timestamp;pressure;altitude;pressure_sealevel;temperature;humidity
5755;BME280;2902;42.130;24.732;2023-12-22T00:01:10;97999.97;;;4.54;78.00
5755;BME280;2902;42.130;24.732;2023-12-22T00:03:40;98004.41;;;4.53;78.22
5755;BME280;2902;42.130;24.732;2023-12-22T00:06:07;98003.22;;;4.56;78.77
5755;BME280;2902;42.130;24.732;2023-12-22T00:08:35;97990.50;;;4.59;78.83
5755;BME280;2902;42.130;24.732;2023-12-22T00:11:02;97987.47;;;4.62;78.72
5755;BME280;2902;42.130;24.732;2023-12-22T00:13:29;97985.44;;;4.58;79.03
5755;BME280;2902;42.130;24.732;2023-12-22T00:15:55;97966.03;;;4.59;79.01
5755;BME280;2902;42.130;24.732;2023-12-22T00:18:22;97969.25;;;4.61;78.95
5755;BME280;2902;42.130;24.732;2023-12-22T00:20:49;97972.69;;;4.61;78.74
5755;BME280;2902;42.130;24.732;2023-12-22T00:23:15;97968.47;;;4.60;78.86
5755;BME280;2902;42.130;24.732;2023-12-22T00:25:44;97961.97;;;4.56;78.31
5755;BME280;2902;42.130;24.732;2023-12-22T00:28:10;97970.22;;;4.53;79.51
5755;BME280;2902;42.130;24.732;2023-12-22T00:30:37;97972.69;;;4.55;78.92
5755;BME280;2902;42.130;24.732;2023-12-22T00:33:04;97985.00;;;4.54;79.48
5755;BME280;2902;42.130;24.732;2023-12-22T00:35:31;97968.84;;;4.57;79.04
5755;BME280;2902;42.130;24.732;2023-12-22T00:37:58;97964.44;;;4.64;78.71
5755;BME280;2902;42.130;24.732;2023-12-22T00:40:25;97974.16;;;4.70;78.60
5755;BME280;2902;42.130;24.732;2023-12-22T00:42:53;97971.75;;;4.75;78.86
5755;BME280;2902;42.130;24.732;2023-12-22T00:45:19;97977.41;;;4.72;77.56
5755;BME280;2902;42.130;24.732;2023-12-22T00:47:46;97977.41;;;4.72;77.70
5755;BME280;2902;42.130;24.732;2023-12-22T00:50:13;97977.22;;;4.74;77.65
5755;BME280;2902;42.130;24.732;2023-12-22T00:52:39;97978.66;;;4.76;78.29
5755;BME280;2902;42.130;24.732;2023-12-22T00:55:07;97978.66;;;4.76;78.14
5755;BME280;2902;42.130;24.732;2023-12-22T00:57:33;97970.75;;;4.76;78.24
5755;BME280;2902;42.130;24.732;2023-12-22T01:00:01;97976.63;;;4.78;77.74
5755;BME280;2902;42.130;24.732;2023-12-22T01:02:30;97977.41;;;4.72;77.70
5755;BME280;2902;42.130;24.732;2023-12-22T01:04:56;97964.47;;;4.71;77.91
5755;BME280;2902;42.130;24.732;2023-12-22T01:07:23;97952.09;;;4.71;78.66
5755;BME280;2902;42.130;24.732;2023-12-22T01:09:51;97955.94;;;4.69;78.06
5755;BME280;2902;42.130;24.732;2023-12-22T01:12:17;97958.97;;;4.66;78.40
5755;BME280;2902;42.130;24.732;2023-12-22T01:14:44;97963.22;;;4.67;79.41
5755;BME280;2902;42.130;24.732;2023-12-22T01:17:12;97972.91;;;4.66;79.37
5755;BME280;2902;42.130;24.732;2023-12-22T01:19:39;97961.97;;;4.56;79.25
5755;BME280;2902;42.130;24.732;2023-12-22T01:22:06;97958.50;;;4.49;79.82
5755;BME280;2902;42.130;24.732;2023-12-22T01:24:32;97941.88;;;4.42;79.68
5755;BME280;2902;42.130;24.732;2023-12-22T01:26:59;97934.81;;;4.43;80.70
5755;BME280;2902;42.130;24.732;2023-12-22T01:29:26;97942.44;;;4.31;79.88
5755;BME280;2902;42.130;24.732;2023-12-22T01:31:52;97933.09;;;4.22;80.61
5755;BME280;2902;42.130;24.732;2023-12-22T01:34:20;97931.06;;;4.24;81.19
5755;BME280;2902;42.130;24.732;2023-12-22T01:36:47;97920.56;;;4.24;80.73
5755;BME280;2902;42.130;24.732;2023-12-22T01:39:15;97914.69;;;4.22;80.70
5755;BME280;2902;42.130;24.732;2023-12-22T01:41:41;97912.88;;;4.23;80.68
5755;BME280;2902;42.130;24.732;2023-12-22T01:44:08;97902.13;;;4.18;80.46
5755;BME280;2902;42.130;24.732;2023-12-22T01:46:36;97893.75;;;4.01;80.83
5755;BME280;2902;42.130;24.732;2023-12-22T01:49:03;97893.91;;;3.93;81.62
5755;BME280;2902;42.130;24.732;2023-12-22T01:51:32;97892.28;;;3.92;81.47
5755;BME280;2902;42.130;24.732;2023-12-22T01:54:00;97883.22;;;3.95;81.82
5755;BME280;2902;42.130;24.732;2023-12-22T01:56:27;97892.09;;;3.94;81.66
5755;BME280;2902;42.130;24.732;2023-12-22T01:58:57;97895.75;;;3.93;81.73
5755;BME280;2902;42.130;24.732;2023-12-22T02:01:25;97892.13;;;4.00;81.63
5755;BME280;2902;42.130;24.732;2023-12-22T02:03:53;97881.84;;;4.05;81.31
5755;BME280;2902;42.130;24.732;2023-12-22T02:06:21;97878.47;;;4.11;81.29
5755;BME280;2902;42.130;24.732;2023-12-22T02:08:49;97877.22;;;4.07;81.50
5755;BME280;2902;42.130;24.732;2023-12-22T02:11:16;97877.00;;;4.02;81.04
5755;BME280;2902;42.130;24.732;2023-12-22T02:13:43;97870.16;;;4.08;81.97
5755;BME280;2902;42.130;24.732;2023-12-22T02:16:17;97880.06;;;4.12;82.08
5755;BME280;2902;42.130;24.732;2023-12-22T02:18:47;97864.25;;;3.99;81.32
5755;BME280;2902;42.130;24.732;2023-12-22T02:21:15;97857.41;;;4.05;82.02
5755;BME280;2902;42.130;24.732;2023-12-22T02:23:43;97875.22;;;4.16;82.12
5755;BME280;2902;42.130;24.732;2023-12-22T02:26:13;97871.03;;;4.21;82.02
5755;BME280;2902;42.130;24.732;2023-12-22T02:28:45;97872.47;;;4.30;81.35
5755;BME280;2902;42.130;24.732;2023-12-22T02:31:17;97864.00;;;4.35;81.34
5755;BME280;2902;42.130;24.732;2023-12-22T02:33:46;97866.84;;;4.40;81.34
5755;BME280;2902;42.130;24.732;2023-12-22T02:36:15;97848.66;;;4.38;80.63
5755;BME280;2902;42.130;24.732;2023-12-22T02:38:45;97847.06;;;4.44;80.90
5755;BME280;2902;42.130;24.732;2023-12-22T02:41:12;97836.13;;;4.40;80.03
5755;BME280;2902;42.130;24.732;2023-12-22T02:43:40;97849.84;;;4.36;80.36
5755;BME280;2902;42.130;24.732;2023-12-22T02:46:13;97855.56;;;4.39;81.25
5755;BME280;2902;42.130;24.732;2023-12-22T02:48:40;97849.28;;;4.47;81.26
5755;BME280;2902;42.130;24.732;2023-12-22T02:51:06;97852.31;;;4.50;80.70
5755;BME280;2902;42.130;24.732;2023-12-22T02:53:33;97851.94;;;4.53;80.99
5755;BME280;2902;42.130;24.732;2023-12-22T02:56:01;97852.31;;;4.50;80.12
5755;BME280;2902;42.130;24.732;2023-12-22T02:58:28;97856.59;;;4.51;80.11
5755;BME280;2902;42.130;24.732;2023-12-22T03:00:54;97860.84;;;4.52;80.75
5755;BME280;2902;42.130;24.732;2023-12-22T03:03:21;97866.69;;;4.54;80.62
5755;BME280;2902;42.130;24.732;2023-12-22T03:05:48;97872.38;;;4.51;80.31
5755;BME280;2902;42.130;24.732;2023-12-22T03:08:14;97862.22;;;4.35;80.82
5755;BME280;2902;42.130;24.732;2023-12-22T03:10:41;97884.63;;;4.31;81.02
5755;BME280;2902;42.130;24.732;2023-12-22T03:13:10;97879.38;;;4.31;82.04
5755;BME280;2902;42.130;24.732;2023-12-22T03:15:37;97853.28;;;4.30;81.55
5755;BME280;2902;42.130;24.732;2023-12-22T03:18:04;97863.00;;;4.42;81.46
5755;BME280;2902;42.130;24.732;2023-12-22T03:20:30;97854.34;;;4.48;81.43
5755;BME280;2902;42.130;24.732;2023-12-22T03:22:58;97850.31;;;4.52;81.40
5755;BME280;2902;42.130;24.732;2023-12-22T03:25:24;97843.03;;;4.54;81.31
5755;BME280;2902;42.130;24.732;2023-12-22T03:27:51;97852.75;;;4.47;81.34
5755;BME280;2902;42.130;24.732;2023-12-22T03:30:19;97848.66;;;4.38;81.62
5755;BME280;2902;42.130;24.732;2023-12-22T03:32:45;97860.97;;;4.31;81.92
5755;BME280;2902;42.130;24.732;2023-12-22T03:35:12;97861.94;;;4.24;82.47
5755;BME280;2902;42.130;24.732;2023-12-22T03:37:39;97857.00;;;4.08;82.33
5755;BME280;2902;42.130;24.732;2023-12-22T03:40:07;97858.63;;;4.02;82.68
5755;BME280;2902;42.130;24.732;2023-12-22T03:42:35;97861.00;;;3.97;81.85
5755;BME280;2902;42.130;24.732;2023-12-22T03:45:01;97839.13;;;3.84;82.57
5755;BME280;2902;42.130;24.732;2023-12-22T03:47:29;97830.59;;;3.75;82.67
5755;BME280;2902;42.130;24.732;2023-12-22T03:49:56;97820.09;;;3.75;83.53
5755;BME280;2902;42.130;24.732;2023-12-22T03:52:23;97816.91;;;3.80;83.67
5755;BME280;2902;42.130;24.732;2023-12-22T03:54:49;97823.75;;;3.81;83.94
5755;BME280;2902;42.130;24.732;2023-12-22T03:57:16;97818.16;;;3.90;84.21
5755;BME280;2902;42.130;24.732;2023-12-22T03:59:43;97801.59;;;3.96;83.37
5755;BME280;2902;42.130;24.732;2023-12-22T04:02:10;97808.56;;;4.10;83.88
5755;BME280;2902;42.130;24.732;2023-12-22T04:04:38;97814.19;;;4.07;82.88
5755;BME280;2902;42.130;24.732;2023-12-22T04:07:05;97819.38;;;3.94;83.15
5755;BME280;2902;42.130;24.732;2023-12-22T04:09:32;97799.41;;;4.00;83.68
5755;BME280;2902;42.130;24.732;2023-12-22T04:11:59;97801.66;;;4.09;83.55
5755;BME280;2902;42.130;24.732;2023-12-22T04:14:25;97795.41;;;4.10;83.52
5755;BME280;2902;42.130;24.732;2023-12-22T04:16:52;97800.72;;;4.23;82.28
5755;BME280;2902;42.130;24.732;2023-12-22T04:19:19;97800.13;;;4.34;82.83
5755;BME280;2902;42.130;24.732;2023-12-22T04:21:47;97808.44;;;4.44;81.86
5755;BME280;2902;42.130;24.732;2023-12-22T04:24:14;97796.94;;;4.52;81.89
5755;BME280;2902;42.130;24.732;2023-12-22T04:26:40;97794.50;;;4.57;81.61
5755;BME280;2902;42.130;24.732;2023-12-22T04:29:07;97790.47;;;4.54;81.67
5755;BME280;2902;42.130;24.732;2023-12-22T04:31:34;97788.06;;;4.59;81.78
5755;BME280;2902;42.130;24.732;2023-12-22T04:34:00;97794.75;;;4.68;81.35
5755;BME280;2902;42.130;24.732;2023-12-22T04:36:27;97794.13;;;4.73;81.78
5755;BME280;2902;42.130;24.732;2023-12-22T04:38:55;97802.84;;;4.73;80.53
5755;BME280;2902;42.130;24.732;2023-12-22T04:41:22;97798.78;;;4.71;81.41
5755;BME280;2902;42.130;24.732;2023-12-22T04:43:49;97807.09;;;4.74;81.08
5755;BME280;2902;42.130;24.732;2023-12-22T04:46:15;97803.44;;;4.69;81.20
5755;BME280;2902;42.130;24.732;2023-12-22T04:48:42;97803.03;;;4.72;81.15
5755;BME280;2902;42.130;24.732;2023-12-22T04:51:09;97806.50;;;4.72;81.48
5755;BME280;2902;42.130;24.732;2023-12-22T04:53:35;97810.75;;;4.80;81.27
5755;BME280;2902;42.130;24.732;2023-12-22T04:56:04;97810.75;;;4.80;81.09
5755;BME280;2902;42.130;24.732;2023-12-22T04:58:30;97799.59;;;4.71;80.16
5755;BME280;2902;42.130;24.732;2023-12-22T05:00:57;97793.34;;;4.72;81.36
5755;BME280;2902;42.130;24.732;2023-12-22T05:03:24;97802.63;;;4.68;81.09
5755;BME280;2902;42.130;24.732;2023-12-22T05:05:51;97801.81;;;4.68;80.89
5755;BME280;2902;42.130;24.732;2023-12-22T05:08:18;97811.13;;;4.70;81.34
5755;BME280;2902;42.130;24.732;2023-12-22T05:10:44;97800.00;;;4.68;81.40
5755;BME280;2902;42.130;24.732;2023-12-22T05:13:12;97802.63;;;4.68;81.19
5755;BME280;2902;42.130;24.732;2023-12-22T05:15:39;97809.09;;;4.59;81.33
5755;BME280;2902;42.130;24.732;2023-12-22T05:18:06;97803.84;;;4.59;80.67
5755;BME280;2902;42.130;24.732;2023-12-22T05:20:32;97794.13;;;4.60;80.62
5755;BME280;2902;42.130;24.732;2023-12-22T05:23:00;97805.47;;;4.67;80.93
5755;BME280;2902;42.130;24.732;2023-12-22T05:25:26;97792.91;;;4.75;80.73
5755;BME280;2902;42.130;24.732;2023-12-22T05:27:54;97795.34;;;4.83;80.48
5755;BME280;2902;42.130;24.732;2023-12-22T05:30:22;97792.97;;;4.88;80.31
5755;BME280;2902;42.130;24.732;2023-12-22T05:32:49;97787.69;;;5.01;79.81
5755;BME280;2902;42.130;24.732;2023-12-22T05:35:16;97798.00;;;5.09;79.77
5755;BME280;2902;42.130;24.732;2023-12-22T05:37:42;97803.69;;;5.06;79.14
5755;BME280;2902;42.130;24.732;2023-12-22T05:40:09;97799.81;;;5.02;79.48
5755;BME280;2902;42.130;24.732;2023-12-22T05:42:37;97797.38;;;5.07;79.54
5755;BME280;2902;42.130;24.732;2023-12-22T05:45:04;97801.03;;;5.06;79.68
5755;BME280;2902;42.130;24.732;2023-12-22T05:47:33;97786.47;;;5.04;79.58
5755;BME280;2902;42.130;24.732;2023-12-22T05:50:00;97768.25;;;5.15;88.18
5755;BME280;2902;42.130;24.732;2023-12-22T05:52:26;97767.34;;;5.60;91.45
5755;BME280;2902;42.130;24.732;2023-12-22T05:54:53;97779.09;;;5.64;86.63
5755;BME280;2902;42.130;24.732;2023-12-22T05:57:20;97791.69;;;5.62;82.71
5755;BME280;2902;42.130;24.732;2023-12-22T05:59:46;97813.53;;;5.56;80.06
5755;BME280;2902;42.130;24.732;2023-12-22T06:02:13;97813.75;;;5.55;79.97
5755;BME280;2902;42.130;24.732;2023-12-22T06:04:41;97806.09;;;5.53;79.89
5755;BME280;2902;42.130;24.732;2023-12-22T06:07:09;97812.78;;;5.49;79.50
5755;BME280;2902;42.130;24.732;2023-12-22T06:09:36;97811.16;;;5.35;80.34
5755;BME280;2902;42.130;24.732;2023-12-22T06:12:03;97802.88;;;5.25;79.80
5755;BME280;2902;42.130;24.732;2023-12-22T06:14:30;97799.81;;;5.22;80.87
5755;BME280;2902;42.130;24.732;2023-12-22T06:16:57;97797.81;;;5.17;80.49
5755;BME280;2902;42.130;24.732;2023-12-22T06:19:24;97799.81;;;5.09;80.99
5755;BME280;2902;42.130;24.732;2023-12-22T06:21:55;97805.91;;;4.96;81.57
5755;BME280;2902;42.130;24.732;2023-12-22T06:24:22;97804.28;;;4.95;82.74
5755;BME280;2902;42.130;24.732;2023-12-22T06:26:49;97808.75;;;5.01;82.91
5755;BME280;2902;42.130;24.732;2023-12-22T06:29:15;97810.97;;;5.04;82.08
5755;BME280;2902;42.130;24.732;2023-12-22T06:31:42;97807.53;;;5.10;81.69
5755;BME280;2902;42.130;24.732;2023-12-22T06:34:09;97813.81;;;5.16;81.96
5755;BME280;2902;42.130;24.732;2023-12-22T06:36:36;97807.50;;;5.23;81.82
5755;BME280;2902;42.130;24.732;2023-12-22T06:39:04;97808.91;;;5.32;81.60
5755;BME280;2902;42.130;24.732;2023-12-22T06:41:31;97811.16;;;5.35;81.50
5755;BME280;2902;42.130;24.732;2023-12-22T06:43:58;97811.56;;;5.26;81.27
5755;BME280;2902;42.130;24.732;2023-12-22T06:46:26;97824.13;;;5.11;82.11
5755;BME280;2902;42.130;24.732;2023-12-22T06:48:53;97817.22;;;5.16;83.92
5755;BME280;2902;42.130;24.732;2023-12-22T06:51:22;97803.25;;;5.42;84.67
5755;BME280;2902;42.130;24.732;2023-12-22T06:53:49;97796.31;;;5.60;84.34
5755;BME280;2902;42.130;24.732;2023-12-22T06:56:19;97807.44;;;5.75;82.59
5755;BME280;2902;42.130;24.732;2023-12-22T06:58:47;97809.47;;;5.67;80.21
5755;BME280;2902;42.130;24.732;2023-12-22T07:01:18;97809.31;;;5.49;80.94
5755;BME280;2902;42.130;24.732;2023-12-22T07:03:46;97807.91;;;5.46;81.30
5755;BME280;2902;42.130;24.732;2023-12-22T07:06:14;97811.34;;;5.53;81.57
5755;BME280;2902;42.130;24.732;2023-12-22T07:11:25;97807.25;;;5.70;80.77
5755;BME280;2902;42.130;24.732;2023-12-22T07:13:52;97800.13;;;5.77;80.73
5755;BME280;2902;42.130;24.732;2023-12-22T07:16:19;97813.94;;;5.86;79.84
5755;BME280;2902;42.130;24.732;2023-12-22T07:18:45;97826.09;;;5.81;78.64
5755;BME280;2902;42.130;24.732;2023-12-22T07:21:16;97823.63;;;5.86;79.75
5755;BME280;2902;42.130;24.732;2023-12-22T07:23:43;97821.22;;;5.91;80.18
5755;BME280;2902;42.130;24.732;2023-12-22T07:26:10;97821.81;;;5.93;79.52
5755;BME280;2902;42.130;24.732;2023-12-22T07:28:38;97825.69;;;5.84;78.90
5755;BME280;2902;42.130;24.732;2023-12-22T07:31:05;97816.78;;;5.71;79.92
5755;BME280;2902;42.130;24.732;2023-12-22T07:33:32;97805.84;;;5.61;80.30
5755;BME280;2902;42.130;24.732;2023-12-22T07:35:58;97818.03;;;5.56;80.95
5755;BME280;2902;42.130;24.732;2023-12-22T07:38:25;97805.47;;;5.51;81.01
5755;BME280;2902;42.130;24.732;2023-12-22T07:40:52;97804.88;;;5.49;81.03
5755;BME280;2902;42.130;24.732;2023-12-22T07:43:19;97794.56;;;5.41;81.31
5755;BME280;2902;42.130;24.732;2023-12-22T07:45:47;97801.03;;;5.32;81.13
5755;BME280;2902;42.130;24.732;2023-12-22T07:48:16;97798.19;;;5.27;81.10
5755;BME280;2902;42.130;24.732;2023-12-22T07:50:42;97789.72;;;5.19;80.73
5755;BME280;2902;42.130;24.732;2023-12-22T07:53:10;97785.66;;;5.10;82.19
5755;BME280;2902;42.130;24.732;2023-12-22T07:55:37;97779.41;;;5.04;83.57
5755;BME280;2902;42.130;24.732;2023-12-22T07:58:04;97767.22;;;5.10;83.96
5755;BME280;2902;42.130;24.732;2023-12-22T08:00:31;97778.38;;;5.05;83.16
5755;BME280;2902;42.130;24.732;2023-12-22T08:02:59;97779.38;;;4.98;83.36
5755;BME280;2902;42.130;24.732;2023-12-22T08:05:26;97773.53;;;5.02;83.45
5755;BME280;2902;42.130;24.732;2023-12-22T08:07:53;97772.31;;;4.98;83.07
5755;BME280;2902;42.130;24.732;2023-12-22T08:10:19;97767.25;;;5.03;82.93
5755;BME280;2902;42.130;24.732;2023-12-22T08:12:46;97776.78;;;5.04;82.42
5755;BME280;2902;42.130;24.732;2023-12-22T08:15:13;97773.53;;;5.02;82.79
5755;BME280;2902;42.130;24.732;2023-12-22T08:17:46;97782.03;;;5.11;83.17
5755;BME280;2902;42.130;24.732;2023-12-22T08:20:17;97783.63;;;5.25;82.85
5755;BME280;2902;42.130;24.732;2023-12-22T08:22:44;97792.53;;;5.37;82.59
5755;BME280;2902;42.130;24.732;2023-12-22T08:25:11;97803.41;;;5.66;82.16
5755;BME280;2902;42.130;24.732;2023-12-22T08:27:38;97799.72;;;5.94;81.23
5755;BME280;2902;42.130;24.732;2023-12-22T08:30:05;97813.03;;;6.12;78.39
5755;BME280;2902;42.130;24.732;2023-12-22T08:32:32;97755.34;;;5.84;78.34
5755;BME280;2902;42.130;24.732;2023-12-22T08:34:59;97811.69;;;6.40;77.54
5755;BME280;2902;42.130;24.732;2023-12-22T08:37:27;97818.72;;;6.53;76.88
5755;BME280;2902;42.130;24.732;2023-12-22T08:39:54;97810.47;;;6.74;76.97
5755;BME280;2902;42.130;24.732;2023-12-22T08:42:20;97812.81;;;6.88;74.95
5755;BME280;2902;42.130;24.732;2023-12-22T08:44:48;97808.47;;;7.00;74.00
5755;BME280;2902;42.130;24.732;2023-12-22T08:47:15;97816.06;;;7.15;73.84
5755;BME280;2902;42.130;24.732;2023-12-22T08:49:42;97810.25;;;7.31;73.83
5755;BME280;2902;42.130;24.732;2023-12-22T08:52:08;97820.50;;;7.45;72.40
5755;BME280;2902;42.130;24.732;2023-12-22T08:54:36;97821.53;;;7.44;72.66
5755;BME280;2902;42.130;24.732;2023-12-22T08:57:03;97828.13;;;7.53;71.78
5755;BME280;2902;42.130;24.732;2023-12-22T08:59:30;97819.19;;;7.54;72.07
5755;BME280;2902;42.130;24.732;2023-12-22T09:01:56;97821.88;;;7.48;71.56
5755;BME280;2902;42.130;24.732;2023-12-22T09:04:23;97825.88;;;7.57;72.21
5755;BME280;2902;42.130;24.732;2023-12-22T09:06:50;97821.34;;;7.64;72.50
5755;BME280;2902;42.130;24.732;2023-12-22T09:09:17;97827.78;;;7.68;72.06
5755;BME280;2902;42.130;24.732;2023-12-22T09:11:45;97813.97;;;7.66;72.07
5755;BME280;2902;42.130;24.732;2023-12-22T09:14:11;97813.63;;;7.80;71.46
5755;BME280;2902;42.130;24.732;2023-12-22T09:16:38;97818.69;;;7.82;71.69
5755;BME280;2902;42.130;24.732;2023-12-22T09:19:06;97816.19;;;7.87;71.86
5755;BME280;2902;42.130;24.732;2023-12-22T09:21:32;97810.91;;;7.87;71.33
5755;BME280;2902;42.130;24.732;2023-12-22T09:23:59;97814.16;;;7.89;71.60
5755;BME280;2902;42.130;24.732;2023-12-22T09:26:26;97812.22;;;7.78;71.60
5755;BME280;2902;42.130;24.732;2023-12-22T09:28:54;97808.56;;;7.79;72.21
5755;BME280;2902;42.130;24.732;2023-12-22T09:31:21;97801.66;;;7.78;72.24
5755;BME280;2902;42.130;24.732;2023-12-22T09:33:48;97800.81;;;7.84;72.17
5755;BME280;2902;42.130;24.732;2023-12-22T09:36:15;97802.84;;;7.82;71.76
5755;BME280;2902;42.130;24.732;2023-12-22T09:38:42;97801.50;;;7.91;72.84
5755;BME280;2902;42.130;24.732;2023-12-22T09:41:09;97803.88;;;7.99;72.51
5755;BME280;2902;42.130;24.732;2023-12-22T09:43:37;97794.38;;;8.09;72.31
5755;BME280;2902;42.130;24.732;2023-12-22T09:46:07;97803.13;;;8.10;71.74
5755;BME280;2902;42.130;24.732;2023-12-22T09:48:36;97805.56;;;8.11;72.92
5755;BME280;2902;42.130;24.732;2023-12-22T09:51:05;97800.06;;;8.13;72.18
5755;BME280;2902;42.130;24.732;2023-12-22T09:53:33;97808.50;;;8.03;72.46
5755;BME280;2902;42.130;24.732;2023-12-22T09:56:00;97794.47;;;8.03;72.41
5755;BME280;2902;42.130;24.732;2023-12-22T09:58:27;97802.19;;;8.04;72.88
5755;BME280;2902;42.130;24.732;2023-12-22T10:00:54;97798.16;;;8.02;74.01
5755;BME280;2902;42.130;24.732;2023-12-22T10:03:24;97768.13;;;7.96;75.09
5755;BME280;2902;42.130;24.732;2023-12-22T10:05:52;97787.41;;;8.15;75.80
5755;BME280;2902;42.130;24.732;2023-12-22T10:08:19;97781.78;;;8.11;76.43
5755;BME280;2902;42.130;24.732;2023-12-22T10:10:46;97771.41;;;8.10;77.71
5755;BME280;2902;42.130;24.732;2023-12-22T10:13:14;97766.44;;;8.02;78.34
5755;BME280;2902;42.130;24.732;2023-12-22T10:15:43;97767.03;;;8.04;78.71
5755;BME280;2902;42.130;24.732;2023-12-22T10:18:10;97763.03;;;7.95;79.01
5755;BME280;2902;42.130;24.732;2023-12-22T10:20:40;97769.06;;;8.02;80.27
5755;BME280;2902;42.130;24.732;2023-12-22T10:23:06;97769.38;;;7.94;81.69
5755;BME280;2902;42.130;24.732;2023-12-22T10:25:33;97764.50;;;7.91;83.03
5755;BME280;2902;42.130;24.732;2023-12-22T10:28:00;97760.69;;;7.87;84.93
5755;BME280;2902;42.130;24.732;2023-12-22T10:30:28;97752.75;;;7.87;85.89
5755;BME280;2902;42.130;24.732;2023-12-22T10:32:54;97754.69;;;7.80;87.30
5755;BME280;2902;42.130;24.732;2023-12-22T10:35:22;97767.91;;;7.80;88.35
5755;BME280;2902;42.130;24.732;2023-12-22T10:37:50;97754.03;;;7.66;88.84
5755;BME280;2902;42.130;24.732;2023-12-22T10:40:19;97758.34;;;7.61;90.34
5755;BME280;2902;42.130;24.732;2023-12-22T10:42:46;97751.91;;;7.57;92.44
5755;BME280;2902;42.130;24.732;2023-12-22T10:45:12;97755.31;;;7.39;93.74
5755;BME280;2902;42.130;24.732;2023-12-22T10:47:40;97752.53;;;7.52;93.66
5755;BME280;2902;42.130;24.732;2023-12-22T10:50:08;97757.03;;;7.52;94.45
5755;BME280;2902;42.130;24.732;2023-12-22T10:52:38;97768.25;;;7.47;95.67
5755;BME280;2902;42.130;24.732;2023-12-22T10:55:06;97761.28;;;7.53;95.67
5755;BME280;2902;42.130;24.732;2023-12-22T10:57:33;97756.28;;;7.45;96.27
5755;BME280;2902;42.130;24.732;2023-12-22T11:00:03;97751.75;;;7.52;95.74
5755;BME280;2902;42.130;24.732;2023-12-22T11:02:33;97753.50;;;7.58;95.44
5755;BME280;2902;42.130;24.732;2023-12-22T11:05:02;97741.75;;;7.54;96.10
5755;BME280;2902;42.130;24.732;2023-12-22T11:07:33;97737.50;;;7.53;96.13
5755;BME280;2902;42.130;24.732;2023-12-22T11:10:03;97729.38;;;7.54;96.92
5755;BME280;2902;42.130;24.732;2023-12-22T11:12:33;97726.44;;;7.62;96.80
5755;BME280;2902;42.130;24.732;2023-12-22T11:15:01;97715.78;;;7.69;97.33
5755;BME280;2902;42.130;24.732;2023-12-22T11:17:30;97710.00;;;7.78;97.41
5755;BME280;2902;42.130;24.732;2023-12-22T11:19:57;97706.38;;;7.91;96.13
5755;BME280;2902;42.130;24.732;2023-12-22T11:22:26;97698.94;;;7.99;95.98
5755;BME280;2902;42.130;24.732;2023-12-22T11:24:54;97697.16;;;8.11;95.29
5755;BME280;2902;42.130;24.732;2023-12-22T11:27:23;97684.84;;;8.35;94.75
5755;BME280;2902;42.130;24.732;2023-12-22T11:29:53;97676.28;;;8.51;94.98
5755;BME280;2902;42.130;24.732;2023-12-22T11:32:21;97672.16;;;8.66;94.86
5755;BME280;2902;42.130;24.732;2023-12-22T11:34:48;97663.19;;;8.79;94.69
5755;BME280;2902;42.130;24.732;2023-12-22T11:37:15;97655.69;;;8.87;94.45
5755;BME280;2902;42.130;24.732;2023-12-22T11:39:43;97648.44;;;9.06;93.56
5755;BME280;2902;42.130;24.732;2023-12-22T11:42:14;97649.03;;;9.31;93.19
5755;BME280;2902;42.130;24.732;2023-12-22T11:44:42;97640.47;;;9.52;92.62
5755;BME280;2902;42.130;24.732;2023-12-22T11:47:11;97650.06;;;9.69;90.41
5755;BME280;2902;42.130;24.732;2023-12-22T11:49:40;97642.56;;;9.78;89.28
5755;BME280;2902;42.130;24.732;2023-12-22T11:52:11;97643.47;;;9.83;89.18
5755;BME280;2902;42.130;24.732;2023-12-22T11:54:45;97647.78;;;10.01;89.18
5755;BME280;2902;42.130;24.732;2023-12-22T11:57:31;97632.28;;;10.21;89.55
5755;BME280;2902;42.130;24.732;2023-12-22T11:59:58;97634.69;;;10.39;88.14
5755;BME280;2902;42.130;24.732;2023-12-22T12:02:29;97627.22;;;10.52;86.73
5755;BME280;2902;42.130;24.732;2023-12-22T12:04:57;97619.66;;;10.61;85.62
5755;BME280;2902;42.130;24.732;2023-12-22T12:07:42;97608.97;;;10.56;84.77
5755;BME280;2902;42.130;24.732;2023-12-22T12:10:36;97604.53;;;10.45;85.86
5755;BME280;2902;42.130;24.732;2023-12-22T12:13:06;97603.81;;;10.49;85.86
5755;BME280;2902;42.130;24.732;2023-12-22T12:15:34;97609.94;;;10.50;86.19
5755;BME280;2902;42.130;24.732;2023-12-22T12:18:03;97615.25;;;10.66;86.58
5755;BME280;2902;42.130;24.732;2023-12-22T12:20:30;97610.09;;;10.76;86.71
5755;BME280;2902;42.130;24.732;2023-12-22T12:22:56;97615.25;;;10.83;84.20
5755;BME280;2902;42.130;24.732;2023-12-22T12:25:24;97619.97;;;10.81;83.88
5755;BME280;2902;42.130;24.732;2023-12-22T12:28:00;97631.88;;;10.95;83.55
5755;BME280;2902;42.130;24.732;2023-12-22T12:30:28;97627.13;;;10.97;82.62
5755;BME280;2902;42.130;24.732;2023-12-22T12:32:58;97630.66;;;10.86;81.56
5755;BME280;2902;42.130;24.732;2023-12-22T12:35:29;97641.47;;;10.96;81.83
5755;BME280;2902;42.130;24.732;2023-12-22T12:37:57;97641.75;;;10.99;81.02
5755;BME280;2902;42.130;24.732;2023-12-22T12:40:27;97646.91;;;11.06;81.30
5755;BME280;2902;42.130;24.732;2023-12-22T12:42:56;97644.03;;;10.91;80.88
5755;BME280;2902;42.130;24.732;2023-12-22T12:45:23;97663.34;;;11.03;80.08
5755;BME280;2902;42.130;24.732;2023-12-22T12:47:55;97667.84;;;11.02;79.69
5755;BME280;2902;42.130;24.732;2023-12-22T12:50:22;97678.06;;;10.94;79.70
5755;BME280;2902;42.130;24.732;2023-12-22T12:52:51;97678.78;;;11.06;79.54
5755;BME280;2902;42.130;24.732;2023-12-22T12:55:20;97689.25;;;11.13;78.92
5755;BME280;2902;42.130;24.732;2023-12-22T12:57:48;97688.94;;;11.09;79.20
5755;BME280;2902;42.130;24.732;2023-12-22T13:00:16;97692.13;;;11.11;79.85
5755;BME280;2902;42.130;24.732;2023-12-22T13:02:43;97698.44;;;11.05;80.63
5755;BME280;2902;42.130;24.732;2023-12-22T13:05:20;97688.69;;;11.11;80.82
5755;BME280;2902;42.130;24.732;2023-12-22T13:07:46;97691.19;;;11.17;80.64
5755;BME280;2902;42.130;24.732;2023-12-22T13:10:21;97693.91;;;11.22;80.63
5755;BME280;2902;42.130;24.732;2023-12-22T13:12:49;97693.78;;;11.12;80.69
5755;BME280;2902;42.130;24.732;2023-12-22T13:15:16;97697.56;;;11.16;81.74
5755;BME280;2902;42.130;24.732;2023-12-22T13:17:43;97695.84;;;11.10;81.51
5755;BME280;2902;42.130;24.732;2023-12-22T13:20:11;97698.75;;;11.08;81.62
5755;BME280;2902;42.130;24.732;2023-12-22T13:22:38;97693.19;;;11.10;81.61
5755;BME280;2902;42.130;24.732;2023-12-22T13:25:05;97684.09;;;11.06;81.45